Time;durP1;ratioP1;P1;durP2;ratioP2;P2;SDS_P1;SDS_P2;PMS_P1;PMS_P2;Temp;Humidity;BMP_temperature;BMP_pressure;BME280_temperature;BME280_humidity;BME280_pressure;Samples;Min_cycle;Max_cycle;Signal;HPM_P1;HPM_P2
2022/12/21 00:02:02;;;;;;;38.22;19.42;;;8.30;99.90;;;;;;5097610;28;20501;-62
2022/12/21 00:04:28;;;;;;;43.35;20.08;;;;;;;;;;5074915;28;20044;-62
2022/12/21 00:06:54;;;;;;;40.30;20.02;;;;;;;;;;5089744;28;20082;-61
2022/12/21 00:09:20;;;;;;;45.40;19.27;;;8.40;99.90;;;;;;5075273;28;20692;-61
2022/12/21 00:11:46;;;;;;;54.30;21.42;;;8.60;99.90;;;;;;5073191;28;20048;-62
2022/12/21 00:14:12;;;;;;;41.03;19.60;;;;;;;;;;5087878;28;20071;-62
2022/12/21 00:16:41;;;;;;;53.55;21.58;;;;;;;;;;5069506;28;20375;-61
2022/12/21 00:19:07;;;;;;;59.47;21.98;;;;;;;;;;5087434;28;20494;-62
2022/12/21 00:21:34;;;;;;;63.20;21.00;;;;;;;;;;5071368;28;20500;-64
2022/12/21 00:24:00;;;;;;;61.58;21.95;;;8.30;99.90;;;;;;5080476;28;20048;-64
2022/12/21 00:26:34;;;;;;;50.28;22.10;;;;;;;;;;5101926;28;20038;-64
2022/12/21 00:29:00;;;;;;;57.35;22.15;;;;;;;;;;5087788;28;20046;-65
2022/12/21 00:31:28;;;;;;;79.88;23.65;;;8.40;99.90;;;;;;5079558;28;20063;-64
2022/12/21 00:33:55;;;;;;;57.42;21.67;;;;;;;;;;5036172;28;20048;-62
2022/12/21 00:36:23;;;;;;;56.08;22.58;;;8.20;99.90;;;;;;5066668;28;20413;-62
2022/12/21 00:38:49;;;;;;;59.20;21.75;;;;;;;;;;5080179;28;20135;-62
2022/12/21 00:41:17;;;;;;;63.25;21.58;;;8.30;99.90;;;;;;5065659;28;20132;-62
2022/12/21 00:43:44;;;;;;;57.67;19.60;;;8.70;99.90;;;;;;5078921;28;20123;-62
2022/12/21 00:46:20;;;;;;;60.95;19.20;;;6.90;99.90;;;;;;5067715;28;20039;-62
2022/12/21 00:48:46;;;;;;;76.63;19.63;;;;;;;;;;5079725;28;20048;-62
2022/12/21 00:51:14;;;;;;;68.47;17.85;;;8.50;99.90;;;;;;5066813;28;20040;-62
2022/12/21 00:53:41;;;;;;;49.38;16.63;;;;;;;;;;5065359;28;20048;-62
2022/12/21 00:56:07;;;;;;;56.72;16.92;;;;;;;;;;5068714;28;20040;-62
2022/12/21 00:58:34;;;;;;;48.05;16.17;;;8.30;99.90;;;;;;5077328;28;20557;-62
2022/12/21 01:01:04;;;;;;;62.75;16.90;;;;;;;;;;5066943;28;20044;-62
2022/12/21 01:03:30;;;;;;;51.85;15.57;;;;;;;;;;5066580;28;20820;-62
2022/12/21 01:05:56;;;;;;;58.60;16.25;;;;;;;;;;5066849;28;20040;-62
2022/12/21 01:08:23;;;;;;;59.67;16.45;;;;;;;;;;5064516;28;20514;-62
2022/12/21 01:10:49;;;;;;;74.63;17.10;;;8.30;99.90;;;;;;5057574;28;20044;-62
2022/12/21 01:13:15;;;;;;;57.42;16.30;;;;;;;;;;5065252;28;20059;-62
2022/12/21 01:15:43;;;;;;;65.20;16.10;;;8.20;99.90;;;;;;5065429;28;20452;-63
2022/12/21 01:18:10;;;;;;;75.22;18.40;;;;;;;;;;5065175;28;20051;-62
2022/12/21 01:20:40;;;;;;;75.68;16.35;;;;;;;;;;5066618;28;20040;-62
2022/12/21 01:23:06;;;;;;;39.78;16.00;;;;;;;;;;5065050;28;20584;-62
2022/12/21 01:25:32;;;;;;;35.30;14.63;;;;;;;;;;5066533;28;20047;-62
2022/12/21 01:27:59;;;;;;;32.83;16.08;;;;;;;;;;5064976;28;20044;-62
2022/12/21 01:30:25;;;;;;;59.10;16.63;;;;;;;;;;5074849;28;20439;-62
2022/12/21 01:32:51;;;;;;;52.47;15.75;;;;;;;;;;5068177;28;20059;-63
2022/12/21 01:35:17;;;;;;;68.15;17.48;;;;;;;;;;5086416;28;20047;-62
2022/12/21 01:37:43;;;;;;;44.45;14.00;;;;;;;;;;5092269;28;20093;-63
2022/12/21 01:40:10;;;;;;;44.45;13.45;;;7.90;99.90;;;;;;5094636;28;20040;-62
2022/12/21 01:42:36;;;;;;;63.53;14.60;;;;;;;;;;5087344;28;20047;-63
2022/12/21 01:45:05;;;;;;;67.40;14.45;;;;;;;;;;5071678;28;20048;-63
2022/12/21 01:47:43;;;;;;;68.40;14.70;;;;;;;;;;5104462;28;20039;-63
2022/12/21 01:50:22;;;;;;;103.15;17.60;;;;;;;;;;5071884;28;20048;-62
2022/12/21 01:52:48;;;;;;;94.65;17.67;;;;;;;;;;5090314;28;20084;-62
2022/12/21 01:55:14;;;;;;;51.28;15.63;;;7.80;99.90;;;;;;5090163;28;20050;-62
2022/12/21 01:57:40;;;;;;;77.57;15.02;;;7.80;99.90;;;;;;5091774;28;20116;-62
2022/12/21 02:00:08;;;;;;;45.63;15.65;;;;;;;;;;5084155;28;20443;-62
2022/12/21 02:02:37;;;;;;;134.88;18.80;;;;;;;;;;5071597;28;20479;-62
2022/12/21 02:05:23;;;;;;;97.82;16.70;;;;;;;;;;5090335;28;20042;-62
2022/12/21 02:07:51;;;;;;;54.80;14.68;;;;;;;;;;5078684;28;20052;-63
2022/12/21 02:10:17;;;;;;;126.65;17.10;;;;;;;;;;5071677;28;20047;-63
2022/12/21 02:12:44;;;;;;;116.43;16.77;;;;;;;;;;5103900;28;20050;-63
2022/12/21 02:15:10;;;;;;;74.78;15.43;;;;;;;;;;5089367;28;20501;-62
2022/12/21 02:17:49;;;;;;;96.38;15.85;;;7.80;99.90;;;;;;5089446;28;20043;-63
2022/12/21 02:20:33;;;;;;;58.78;14.10;;;;;;;;;;5071105;28;20055;-62
2022/12/21 02:23:12;;;;;;;66.97;15.57;;;;;;;;;;5089405;28;20228;-62
2022/12/21 02:25:44;;;;;;;47.17;14.75;;;;;;;;;;5089374;28;20598;-63
2022/12/21 02:28:21;;;;;;;71.63;16.42;;;;;;;;;;5088990;28;20039;-62
2022/12/21 02:30:50;;;;;;;98.97;16.67;;;7.60;99.90;;;;;;5088969;28;20055;-62
2022/12/21 02:33:26;;;;;;;103.85;18.98;;;7.70;99.90;;;;;;5070729;28;20040;-62
2022/12/21 02:35:52;;;;;;;72.07;16.00;;;;;;;;;;5096663;28;20050;-62
2022/12/21 02:38:33;;;;;;;45.63;15.50;;;;;;;;;;5109389;28;20035;-62
2022/12/21 02:41:15;;;;;;;80.68;17.02;;;;;;;;;;5036443;28;20044;-62
2022/12/21 02:44:14;;;;;;;56.35;15.88;;;;;;;;;;5092586;28;20424;-62
2022/12/21 02:46:45;;;;;;;73.97;17.02;;;;;;;;;;5094732;28;20108;-61
2022/12/21 02:49:16;;;;;;;61.28;15.90;;;;;;;;;;5089062;28;20048;-62
2022/12/21 02:51:48;;;;;;;76.03;17.65;;;;;;;;;;5088914;28;20075;-62
2022/12/21 02:54:16;;;;;;;50.97;16.38;;;;;;;;;;5056122;28;20084;-62
2022/12/21 02:56:42;;;;;;;42.15;15.50;;;;;;;;;;5101833;28;20086;-62
2022/12/21 02:59:11;;;;;;;37.55;14.68;;;;;;;;;;5090202;28;20040;-63
2022/12/21 03:01:48;;;;;;;65.32;14.20;;;;;;;;;;5070607;28;20131;-62
2022/12/21 03:04:35;;;;;;;86.32;15.27;;;;;;;;;;5088685;28;20089;-63
2022/12/21 03:07:13;;;;;;;54.58;14.07;;;;;;;;;;5060051;28;20059;-62
2022/12/21 03:09:54;;;;;;;66.35;14.30;;;;;;;;;;5081888;28;20043;-62
2022/12/21 03:12:39;;;;;;;46.08;12.93;;;;;;;;;;5070861;28;20351;-62
2022/12/21 03:15:05;;;;;;;61.70;14.20;;;;;;;;;;5099535;28;20054;-62
2022/12/21 03:17:44;;;;;;;63.15;13.00;;;7.40;99.90;;;;;;5069905;28;20131;-62
2022/12/21 03:20:28;;;;;;;71.75;13.40;;;;;;;;;;5069865;28;20044;-63
2022/12/21 03:23:08;;;;;;;50.83;13.55;;;;;;;;;;5088047;28;20048;-62
2022/12/21 03:25:37;;;;;;;97.57;14.80;;;;;;;;;;5069897;28;20047;-62
2022/12/21 03:28:07;;;;;;;60.10;12.10;;;;;;;;;;5102126;28;20525;-62
2022/12/21 03:30:37;;;;;;;73.80;14.10;;;;;;;;;;5088008;28;20056;-62
2022/12/21 03:33:05;;;;;;;84.28;15.38;;;;;;;;;;5073133;28;20110;-62
2022/12/21 03:35:35;;;;;;;60.60;12.27;;;;;;;;;;5098529;28;20101;-62
2022/12/21 03:38:04;;;;;;;53.03;13.55;;;;;;;;;;5069318;28;20043;-62
2022/12/21 03:40:34;;;;;;;60.20;12.80;;;7.10;99.90;;;;;;5078160;28;20044;-62
2022/12/21 03:43:03;;;;;;;56.60;12.40;;;;;;;;;;5092510;28;20521;-62
2022/12/21 03:45:35;;;;;;;87.25;14.65;;;7.00;99.90;;;;;;5101519;28;20039;-63
2022/12/21 03:48:04;;;;;;;97.03;14.68;;;;;;;;;;5088310;28;20040;-62
2022/12/21 03:50:33;;;;;;;109.43;15.52;;;;;;;;;;5055682;28;20531;-64
2022/12/21 03:53:04;;;;;;;92.15;14.32;;;;;;;;;;5069852;28;20153;-62
2022/12/21 03:55:33;;;;;;;69.78;12.82;;;;;;;;;;5069550;28;20048;-62
2022/12/21 03:58:00;;;;;;;87.07;13.63;;;;;;;;;;5087759;28;20176;-62
2022/12/21 04:00:31;;;;;;;83.35;13.57;;;6.90;99.90;;;;;;5101876;28;20040;-64
2022/12/21 04:03:00;;;;;;;153.73;17.58;;;;;;;;;;5087352;28;20051;-62
2022/12/21 04:05:42;;;;;;;101.88;15.63;;;;;;;;;;5069096;28;20505;-62
2022/12/21 04:08:08;;;;;;;151.68;17.48;;;7.00;99.90;;;;;;5087414;28;20032;-62
2022/12/21 04:10:34;;;;;;;96.47;15.18;;;;;;;;;;5090476;28;20275;-62
2022/12/21 04:13:00;;;;;;;122.97;17.60;;;;;;;;;;5079844;28;20051;-63
2022/12/21 04:16:03;;;;;;;110.72;16.05;;;;;;;;;;5087076;28;20052;-62
2022/12/21 04:18:13;;;;;;;94.43;17.73;;;;;;;;;;5068576;28;20526;-62
2022/12/21 04:20:39;;;;;;;94.22;17.02;;;;;;;;;;5068569;28;20058;-63
2022/12/21 04:28:35;;;;;;;97.72;19.52;;;;;;;;;;5086891;28;20505;-62
2022/12/21 04:31:01;;;;;;;76.15;17.55;;;;;;;;;;5101043;28;20048;-62
2022/12/21 04:33:28;;;;;;;105.05;18.38;;;;;;;;;;5086784;28;20413;-63
2022/12/21 04:38:59;;;;;;;81.18;17.38;;;;;;;;;;5020603;28;20064;-63
2022/12/21 04:41:25;;;;;;;85.57;15.90;;;;;;;;;;5012898;28;20511;-63
2022/12/21 04:43:51;;;;;;;98.47;18.00;;;;;;;;;;5051425;28;20057;-63
2022/12/21 04:46:17;;;;;;;78.00;16.15;;;;;;;;;;5075254;28;20454;-63
2022/12/21 04:48:44;;;;;;;90.28;16.10;;;;;;;;;;5068789;28;20064;-62
2022/12/21 04:51:15;;;;;;;63.33;14.57;;;;;;;;;;5068356;28;20178;-63
2022/12/21 04:53:41;;;;;;;62.78;14.50;;;;;;;;;;5086596;28;20068;-63
2022/12/21 04:56:07;;;;;;;78.47;14.63;;;;;;;;;;5051868;28;20106;-63
2022/12/21 04:58:33;;;;;;;53.53;13.80;;;6.70;99.90;;;;;;5100797;28;20405;-63
2022/12/21 05:01:01;;;;;;;70.00;14.10;;;;;;;;;;5068594;28;20043;-62
2022/12/21 05:03:27;;;;;;;63.10;13.13;;;;;;;;;;5086458;28;20120;-62
2022/12/21 05:05:53;;;;;;;61.97;12.93;;;6.40;99.90;;;;;;5093416;28;20074;-62
2022/12/21 05:08:19;;;;;;;41.33;12.23;;;;;;;;;;5093944;28;20115;-63
2022/12/21 05:10:45;;;;;;;38.58;11.25;;;;;;;;;;5068568;28;20125;-63
2022/12/21 05:13:11;;;;;;;39.63;11.38;;;;;;;;;;5086641;28;20509;-65
2022/12/21 05:15:38;;;;;;;39.75;12.32;;;;;;;;;;5068275;28;20048;-63
2022/12/21 05:18:04;;;;;;;44.53;11.88;;;;;;;;;;5070232;28;20044;-63
2022/12/21 05:20:30;;;;;;;55.03;12.40;;;;;;;;;;5090515;28;20379;-62
2022/12/21 05:22:56;;;;;;;38.63;11.65;;;;;;;;;;5090832;28;20066;-63
2022/12/21 05:25:22;;;;;;;56.47;12.27;;;;;;;;;;5091019;28;20047;-63
2022/12/21 05:27:48;;;;;;;76.97;14.02;;;;;;;;;;5090820;28;20523;-62
2022/12/21 05:30:14;;;;;;;79.65;14.63;;;6.40;99.90;;;;;;5090786;28;20052;-62
2022/12/21 05:32:40;;;;;;;66.55;13.13;;;;;;;;;;5072768;28;20048;-62
2022/12/21 05:35:06;;;;;;;66.05;13.02;;;;;;;;;;5072759;28;20540;-64
2022/12/21 05:37:32;;;;;;;124.63;17.05;;;;;;;;;;5091029;28;20044;-62
2022/12/21 05:39:58;;;;;;;90.20;14.93;;;;;;;;;;5091031;28;20047;-63
2022/12/21 05:42:24;;;;;;;103.63;15.52;;;;;;;;;;5090557;28;20052;-62
2022/12/21 05:44:50;;;;;;;60.88;13.50;;;;;;;;;;5086558;28;20039;-62
2022/12/21 05:47:16;;;;;;;83.65;15.00;;;;;;;;;;5090582;28;20456;-64
2022/12/21 05:49:41;;;;;;;77.90;15.30;;;;;;;;;;5072401;28;20058;-63
2022/12/21 05:52:07;;;;;;;77.07;14.48;;;;;;;;;;5072068;28;20082;-62
2022/12/21 05:54:33;;;;;;;63.78;13.57;;;;;;;;;;5090546;28;20043;-62
2022/12/21 05:56:59;;;;;;;113.88;17.40;;;;;;;;;;5090218;28;20086;-62
2022/12/21 05:59:25;;;;;;;66.07;14.57;;;;;;;;;;5072113;28;20059;-63
2022/12/21 06:01:51;;;;;;;80.47;13.82;;;;;;;;;;5090473;28;20524;-63
2022/12/21 06:04:17;;;;;;;54.17;14.23;;;;;;;;;;5090169;28;20161;-63
2022/12/21 06:06:45;;;;;;;94.10;15.88;;;;;;;;;;5071681;28;20048;-63
2022/12/21 06:09:11;;;;;;;60.38;14.38;;;;;;;;;;5089840;28;20180;-62
2022/12/21 06:11:37;;;;;;;90.07;16.00;;;;;;;;;;5089723;28;20096;-63
2022/12/21 06:14:03;;;;;;;64.78;14.18;;;;;;;;;;5055065;28;20058;-63
2022/12/21 06:16:30;;;;;;;49.97;13.32;;;;;;;;;;5089681;28;20425;-63
2022/12/21 06:18:56;;;;;;;56.97;13.23;;;;;;;;;;5071036;28;20052;-63
2022/12/21 06:21:22;;;;;;;55.70;12.80;;;;;;;;;;5089550;28;20051;-63
2022/12/21 06:23:48;;;;;;;51.08;13.75;;;;;;;;;;5071073;28;20050;-64
2022/12/21 06:26:17;;;;;;;49.95;12.98;;;5.80;99.90;;;;;;5089562;28;20042;-63
2022/12/21 06:28:46;;;;;;;66.38;13.30;;;;;;;;;;5088466;28;20040;-62
2022/12/21 06:31:13;;;;;;;71.20;14.25;;;5.90;99.90;;;;;;5088831;28;20161;-63
2022/12/21 06:33:39;;;;;;;62.25;14.73;;;;;;;;;;5089325;28;20040;-63
2022/12/21 06:36:07;;;;;;;77.40;14.88;;;;;;;;;;5089302;28;20043;-62
2022/12/21 06:38:33;;;;;;;98.43;18.30;;;5.90;99.90;;;;;;5071193;28;20506;-63
2022/12/21 06:41:00;;;;;;;69.38;15.48;;;;;;;;;;5071366;28;20043;-63
2022/12/21 06:43:27;;;;;;;103.13;17.98;;;;;;;;;;5092981;28;20409;-63
2022/12/21 06:46:00;;;;;;;84.20;17.10;;;;;;;;;;5081287;28;20048;-63
2022/12/21 06:48:26;;;;;;;113.43;19.30;;;;;;;;;;5070782;28;20044;-63
2022/12/21 06:50:54;;;;;;;137.93;22.20;;;6.30;99.90;;;;;;5071018;28;20055;-63
2022/12/21 06:53:20;;;;;;;115.03;20.75;;;;;;;;;;5103493;28;20046;-62
2022/12/21 06:55:46;;;;;;;117.15;21.42;;;;;;;;;;5071303;28;20553;-63
2022/12/21 06:58:13;;;;;;;103.60;21.85;;;6.20;99.90;;;;;;5070898;28;20142;-63
2022/12/21 07:00:39;;;;;;;132.20;24.38;;;;;;;;;;5092364;28;20365;-63
2022/12/21 07:03:05;;;;;;;133.77;23.52;;;;;;;;;;5079732;28;20040;-63
2022/12/21 07:05:31;;;;;;;98.35;21.02;;;;;;;;;;5089461;28;20053;-63
2022/12/21 07:07:57;;;;;;;126.35;26.38;;;;;;;;;;5070545;28;20493;-62
2022/12/21 07:10:23;;;;;;;172.13;27.83;;;;;;;;;;5084924;28;20270;-62
2022/12/21 07:12:49;;;;;;;87.93;23.73;;;6.30;99.90;;;;;;5088603;28;20040;-63
2022/12/21 07:15:15;;;;;;;135.63;25.58;;;;;;;;;;5089011;28;20071;-63
2022/12/21 07:17:41;;;;;;;121.82;26.23;;;;;;;;;;5088352;28;20458;-63
2022/12/21 07:20:07;;;;;;;106.82;26.65;;;;;;;;;;5091681;28;20050;-63
2022/12/21 07:22:32;;;;;;;95.13;26.25;;;6.30;99.90;;;;;;5073429;28;20075;-63
2022/12/21 07:24:58;;;;;;;113.00;26.15;;;;;;;;;;5098716;28;20523;-62
2022/12/21 07:27:24;;;;;;;106.63;26.27;;;;;;;;;;5087932;28;20055;-63
2022/12/21 07:29:50;;;;;;;97.32;25.52;;;;;;;;;;5093607;28;20056;-63
2022/12/21 07:32:16;;;;;;;114.88;28.02;;;;;;;;;;5072288;28;20172;-62
2022/12/21 07:34:42;;;;;;;118.53;27.42;;;;;;;;;;5095948;28;20469;-63
2022/12/21 07:37:08;;;;;;;113.07;26.92;;;6.40;99.90;;;;;;5099294;28;20028;-62
2022/12/21 07:39:33;;;;;;;106.35;27.90;;;;;;;;;;5070807;28;20040;-62
2022/12/21 07:41:59;;;;;;;110.70;28.27;;;;;;;;;;5098906;28;20043;-62
2022/12/21 07:44:25;;;;;;;133.25;30.90;;;;;;;;;;5092103;28;20762;-63
2022/12/21 07:46:51;;;;;;;135.13;31.30;;;;;;;;;;5088219;28;20032;-62
2022/12/21 07:49:17;;;;;;;95.05;30.02;;;;;;;;;;5106842;28;20035;-63
2022/12/21 07:51:43;;;;;;;109.95;30.63;;;6.70;99.90;;;;;;5083819;28;20166;-62
2022/12/21 07:54:09;;;;;;;107.95;30.80;;;;;;;;;;5105257;28;20573;-63
2022/12/21 07:56:35;;;;;;;106.10;32.00;;;;;;;;;;5105876;28;20039;-63
2022/12/21 07:59:01;;;;;;;136.13;35.95;;;;;;;;;;5086651;28;20055;-63
2022/12/21 08:01:27;;;;;;;114.43;34.13;;;;;;;;;;5087578;28;20104;-63
2022/12/21 08:03:53;;;;;;;120.03;35.85;;;;;;;;;;5102992;28;20039;-65
2022/12/21 08:06:19;;;;;;;117.35;35.53;;;;;;;;;;5085909;28;20378;-64
2022/12/21 08:08:46;;;;;;;106.07;34.15;;;;;;;;;;5085526;28;20722;-64
2022/12/21 08:11:13;;;;;;;105.60;34.53;;;;;;;;;;5084797;28;20039;-64
2022/12/21 08:13:40;;;;;;;104.82;34.00;;;;;;;;;;5106912;28;20519;-63
2022/12/21 08:16:06;;;;;;;110.40;35.85;;;;;;;;;;5077572;28;20043;-63
2022/12/21 08:18:32;;;;;;;116.93;36.05;;;;;;;;;;5086502;28;20035;-63
2022/12/21 08:20:58;;;;;;;107.80;34.10;;;8.00;99.90;;;;;;5078097;28;20047;-63
2022/12/21 08:23:25;;;;;;;97.57;32.65;;;;;;;;;;5095258;28;20044;-63
2022/12/21 08:25:51;;;;;;;93.90;31.40;;;6.60;99.90;;;;;;5068613;28;20083;-63
2022/12/21 08:28:17;;;;;;;102.93;32.83;;;;;;;;;;5090228;28;20035;-63
2022/12/21 08:30:43;;;;;;;98.82;32.05;;;;;;;;;;5073523;28;20441;-63
2022/12/21 08:33:09;;;;;;;101.00;32.22;;;6.70;99.90;;;;;;5086987;28;20054;-63
2022/12/21 08:35:35;;;;;;;108.25;34.22;;;;;;;;;;5086938;28;20075;-63
2022/12/21 08:38:01;;;;;;;108.72;34.67;;;;;;;;;;5068653;28;20044;-63
2022/12/21 08:40:27;;;;;;;94.57;32.92;;;;;;;;;;5076014;28;20497;-63
2022/12/21 08:42:53;;;;;;;110.05;34.00;;;;;;;;;;5094560;28;20040;-63
2022/12/21 08:45:19;;;;;;;106.85;33.38;;;;;;;;;;5077646;28;20047;-63
2022/12/21 08:47:47;;;;;;;109.30;33.75;;;;;;;;;;5070959;28;20044;-62
2022/12/21 08:50:13;;;;;;;99.32;33.10;;;;;;;;;;5092643;28;20068;-63
2022/12/21 08:52:39;;;;;;;96.10;31.52;;;7.20;99.90;;;;;;5066075;28;20513;-63
2022/12/21 08:55:05;;;;;;;113.72;32.47;;;;;;;;;;5058298;28;20060;-63
2022/12/21 08:57:31;;;;;;;111.55;30.55;;;;;;;;;;5080537;28;20086;-63
2022/12/21 08:59:57;;;;;;;100.78;30.10;;;;;;;;;;5088683;28;20071;-63
2022/12/21 09:02:23;;;;;;;104.95;31.08;;;;;;;;;;5086299;28;20052;-63
2022/12/21 09:04:49;;;;;;;95.70;27.80;;;;;;;;;;5087364;28;20478;-65
2022/12/21 09:07:14;;;;;;;89.95;27.33;;;7.20;99.90;;;;;;5087184;28;20036;-63
2022/12/21 09:09:40;;;;;;;85.75;26.77;;;;;;;;;;5087348;28;20036;-64
2022/12/21 09:12:06;;;;;;;64.40;23.48;;;;;;;;;;5087007;28;20136;-63
2022/12/21 09:14:32;;;;;;;76.70;25.25;;;7.20;99.90;;;;;;5086986;28;20047;-63
2022/12/21 09:16:58;;;;;;;69.40;22.58;;;;;;;;;;5100896;28;20032;-63
2022/12/21 09:19:25;;;;;;;77.10;21.63;;;;;;;;;;5106348;28;20048;-63
2022/12/21 09:21:51;;;;;;;70.65;23.17;;;;;;;;;;5086532;28;20553;-62
2022/12/21 09:24:17;;;;;;;81.75;22.52;;;;;;;;;;5086756;28;20036;-64
2022/12/21 09:26:43;;;;;;;78.43;23.77;;;;;;;;;;5097072;28;20039;-62
2022/12/21 09:29:10;;;;;;;92.22;24.33;;;;;;;;;;5098739;28;20478;-63
2022/12/21 09:31:36;;;;;;;78.65;22.58;;;;;;;;;;5104122;28;20505;-63
2022/12/21 09:34:02;;;;;;;88.45;24.83;;;;;;;;;;5086080;28;20057;-63
2022/12/21 09:36:27;;;;;;;91.43;24.25;;;7.00;99.90;;;;;;5103724;28;20055;-63
2022/12/21 09:38:54;;;;;;;94.47;24.42;;;;;;;;;;5094227;28;20042;-62
2022/12/21 09:41:29;;;;;;;117.90;26.25;;;;;;;;;;5105742;28;20039;-63
2022/12/21 09:44:19;;;;;;;111.68;26.25;;;;;;;;;;5083520;28;20106;-63
2022/12/21 09:46:46;;;;;;;95.72;24.95;;;;;;;;;;5092114;28;20040;-63
2022/12/21 09:49:16;;;;;;;94.13;25.05;;;;;;;;;;5095379;28;20032;-62
2022/12/21 09:51:47;;;;;;;92.20;26.55;;;;;;;;;;5085525;28;20055;-63
2022/12/21 09:54:20;;;;;;;90.20;27.13;;;;;;;;;;5105415;28;20746;-63
2022/12/21 09:56:48;;;;;;;94.43;26.58;;;;;;;;;;5085456;28;20050;-62
2022/12/21 09:59:16;;;;;;;109.07;27.48;;;;;;;;;;5104792;28;20039;-63
2022/12/21 10:01:57;;;;;;;98.45;26.23;;;;;;;;;;5099125;28;20094;-63
2022/12/21 10:04:29;;;;;;;91.00;27.35;;;;;;;;;;5088332;28;20043;-62
2022/12/21 10:06:58;;;;;;;91.80;25.40;;;;;;;;;;5088091;28;20089;-63
2022/12/21 10:09:36;;;;;;;94.28;25.30;;;;;;;;;;5089889;28;20040;-63
2022/12/21 10:12:08;;;;;;;98.32;27.15;;;;;;;;;;5105999;28;20118;-63
2022/12/21 10:15:07;;;;;;;106.13;28.70;;;7.40;99.90;;;;;;5084417;28;20077;-63
2022/12/21 10:17:48;;;;;;;90.28;25.65;;;7.60;99.90;;;;;;5107512;28;20043;-63
2022/12/21 10:20:21;;;;;;;89.22;26.85;;;;;;;;;;5104651;28;20078;-63
2022/12/21 10:22:48;;;;;;;76.90;25.85;;;;;;;;;;5106249;28;20401;-64
2022/12/21 10:25:13;;;;;;;70.32;22.73;;;;;;;;;;5079783;28;20756;-63
2022/12/21 10:27:42;;;;;;;79.15;25.33;;;;;;;;;;5073297;28;20061;-63
2022/12/21 10:30:12;;;;;;;68.93;23.45;;;;;;;;;;5090685;28;20059;-61
2022/12/21 10:32:38;;;;;;;71.63;21.98;;;;;;;;;;5106375;28;20056;-62
2022/12/21 10:35:27;;;;;;;65.97;24.88;;;;;;;;;;5097095;28;20127;-62
2022/12/21 10:37:54;;;;;;;55.17;20.95;;;;;;;;;;5084866;28;20064;-63
2022/12/21 10:40:22;;;;;;;55.13;20.55;;;;;;;;;;5106793;28;20046;-61
2022/12/21 10:42:50;;;;;;;58.60;21.48;;;8.50;99.90;;;;;;5102207;28;20058;-62
2022/12/21 10:45:19;;;;;;;62.50;21.73;;;8.90;99.90;;;;;;5105567;28;20405;-62
2022/12/21 10:47:45;;;;;;;52.08;20.67;;;;;;;;;;5088834;28;20055;-61
2022/12/21 10:50:13;;;;;;;51.05;19.55;;;;;;;;;;5106594;28;20067;-61
2022/12/21 10:52:40;;;;;;;48.72;19.58;;;8.90;99.90;;;;;;5107918;28;20533;-62
2022/12/21 10:55:07;;;;;;;53.13;20.40;;;;;;;;;;5089636;28;20061;-62
2022/12/21 10:57:33;;;;;;;49.88;19.67;;;;;;;;;;5105709;28;20058;-62
2022/12/21 11:00:18;;;;;;;47.20;18.85;;;;;;;;;;5087554;28;20146;-64
2022/12/21 11:02:46;;;;;;;47.22;20.40;;;;;;;;;;5096510;28;20040;-62
2022/12/21 11:05:38;;;;;;;47.40;19.50;;;;;;;;;;5077749;28;20084;-62
2022/12/21 11:08:13;;;;;;;39.85;17.30;;;9.20;99.90;;;;;;5065083;28;20051;-62
2022/12/21 11:10:40;;;;;;;41.42;17.15;;;;;;;;;;5104570;28;20093;-63
2022/12/21 11:13:06;;;;;;;60.13;21.17;;;;;;;;;;5098059;28;20044;-62
2022/12/21 11:15:32;;;;;;;42.97;19.58;;;;;;;;;;5072960;28;20570;-62
2022/12/21 11:17:59;;;;;;;45.35;19.55;;;;;;;;;;5082676;28;20089;-63
2022/12/21 11:20:26;;;;;;;49.25;18.95;;;;;;;;;;5104321;28;20048;-63
2022/12/21 11:22:53;;;;;;;50.78;19.55;;;;;;;;;;5082251;28;20465;-62
2022/12/21 11:25:28;;;;;;;47.78;18.63;;;9.30;99.90;;;;;;5086391;28;20085;-63
2022/12/21 11:27:59;;;;;;;48.75;19.33;;;;;;;;;;5103616;28;20122;-63
2022/12/21 11:30:26;;;;;;;50.75;18.95;;;;;;;;;;5087431;28;20429;-62
2022/12/21 11:32:54;;;;;;;41.80;16.50;;;;;;;;;;5104569;28;20048;-63
2022/12/21 11:35:23;;;;;;;48.80;17.77;;;;;;;;;;5088287;28;20047;-63
2022/12/21 11:37:53;;;;;;;41.67;18.45;;;;;;;;;;5087658;28;20131;-62
2022/12/21 11:40:20;;;;;;;39.10;17.80;;;;;;;;;;5100189;28;20078;-62
2022/12/21 11:42:52;;;;;;;46.35;18.38;;;;;;;;;;5095009;28;20052;-63
2022/12/21 11:45:22;;;;;;;40.00;16.83;;;;;;;;;;5084354;28;20100;-63
2022/12/21 11:47:56;;;;;;;43.03;18.67;;;;;;;;;;5086405;28;20079;-63
2022/12/21 11:50:27;;;;;;;44.53;17.85;;;;;;;;;;5085325;28;20050;-62
2022/12/21 11:53:14;;;;;;;45.03;18.90;;;;;;;;;;5085971;28;20127;-63
2022/12/21 11:55:52;;;;;;;45.15;18.17;;;;;;;;;;5071118;28;20055;-63
2022/12/21 11:58:21;;;;;;;41.83;17.27;;;;;;;;;;5080198;28;20056;-63
2022/12/21 12:01:14;;;;;;;41.42;18.63;;;9.50;99.90;;;;;;5093296;28;20043;-62
2022/12/21 12:03:46;;;;;;;48.55;20.70;;;;;;;;;;5083127;28;20063;-63
2022/12/21 12:06:18;;;;;;;36.90;17.75;;;;;;;;;;5076673;28;20046;-62
2022/12/21 12:08:59;;;;;;;54.50;20.90;;;;;;;;;;5088068;28;21186;-63
2022/12/21 12:11:45;;;;;;;42.53;18.17;;;9.60;99.90;;;;;;5088586;28;20112;-62
2022/12/21 12:14:18;;;;;;;45.67;19.35;;;;;;;;;;5089536;28;20430;-62
2022/12/21 12:16:58;;;;;;;44.40;20.13;;;;;;;;;;5075316;28;20047;-62
2022/12/21 12:20:00;;;;;;;42.65;20.08;;;9.40;99.90;;;;;;5097660;28;20043;-63
2022/12/21 12:22:50;;;;;;;44.00;20.58;;;9.60;99.90;;;;;;5088642;28;20054;-62
2022/12/21 12:25:23;;;;;;;41.65;18.60;;;;;;;;;;5071660;28;20051;-62
2022/12/21 12:28:04;;;;;;;43.63;19.45;;;;;;;;;;5068469;28;20346;-62
2022/12/21 12:30:49;;;;;;;44.47;18.58;;;;;;;;;;5087520;28;20079;-62
2022/12/21 12:33:18;;;;;;;40.00;19.05;;;;;;;;;;5079407;28;20048;-61
2022/12/21 12:36:08;;;;;;;47.42;20.55;;;9.30;99.90;;;;;;5078025;28;20042;-62
2022/12/21 12:38:48;;;;;;;46.33;20.38;;;9.30;99.90;;;;;;5081614;28;20113;-62
2022/12/21 12:41:20;;;;;;;40.83;17.95;;;;;;;;;;5089429;28;20051;-63
2022/12/21 12:43:58;;;;;;;42.38;18.73;;;;;;;;;;5075903;28;20074;-63
2022/12/21 12:46:33;;;;;;;45.97;20.85;;;;;;;;;;5101747;28;20035;-62
2022/12/21 12:48:59;;;;;;;;;;;;;;;;;;5069332;28;20050;-63
2022/12/21 12:51:25;;;;;;;50.10;21.23;;;;;;;;;;5100920;28;19923;-62
2022/12/21 12:54:03;;;;;;;48.83;20.52;;;9.00;99.90;;;;;;5057696;28;20046;-62
2022/12/21 12:56:50;;;;;;;41.60;20.63;;;;;;;;;;5093929;28;20047;-62
2022/12/21 12:59:16;;;;;;;50.63;22.15;;;;;;;;;;5086699;28;20545;-62
2022/12/21 13:01:45;;;;;;;43.28;20.95;;;;;;;;;;5068307;28;20135;-63
2022/12/21 13:04:22;;;;;;;44.28;21.48;;;;;;;;;;5074973;28;20080;-62
2022/12/21 13:07:04;;;;;;;39.20;20.80;;;;;;;;;;5073414;28;20063;-62
2022/12/21 13:09:54;;;;;;;43.03;21.73;;;;;;;;;;5076237;28;20059;-63
2022/12/21 13:12:33;;;;;;;42.13;20.88;;;;;;;;;;5103131;28;20039;-62
2022/12/21 13:15:03;;;;;;;40.90;20.77;;;;;;;;;;5080236;28;20050;-62
2022/12/21 13:17:41;;;;;;;40.25;21.63;;;;;;;;;;5084783;28;20465;-62
2022/12/21 13:20:09;;;;;;;41.65;22.25;;;;;;;;;;5072754;28;20044;-62
2022/12/21 13:22:36;;;;;;;49.13;21.60;;;;;;;;;;5090583;28;20040;-62
2022/12/21 13:25:06;;;;;;;45.63;22.88;;;;;;;;;;5096251;28;20546;-62
2022/12/21 13:27:37;;;;;;;46.65;22.10;;;;;;;;;;5089047;28;20086;-62
2022/12/21 13:30:03;;;;;;;41.83;22.40;;;;;;;;;;5086637;28;20063;-62
2022/12/21 13:32:37;;;;;;;45.13;21.92;;;;;;;;;;5102124;28;20048;-61
2022/12/21 13:35:07;;;;;;;45.10;20.80;;;;;;;;;;5085943;28;20400;-62
2022/12/21 13:37:34;;;;;;;37.33;19.95;;;;;;;;;;5103550;28;20039;-61
2022/12/21 13:40:00;;;;;;;40.40;21.33;;;;;;;;;;5107647;28;20043;-62
2022/12/21 13:42:36;;;;;;;44.63;21.27;;;;;;;;;;5106422;28;20127;-62
2022/12/21 13:45:06;;;;;;;38.33;21.17;;;;;;;;;;5089205;28;20151;-62
2022/12/21 13:47:33;;;;;;;44.58;22.00;;;8.60;99.90;;;;;;5089485;28;20112;-62
2022/12/21 13:50:11;;;;;;;43.42;21.20;;;;;;;;;;5103143;28;20530;-61
2022/12/21 13:52:55;;;;;;;35.25;18.98;;;;;;;;;;5109543;28;20054;-63
2022/12/21 13:55:31;;;;;;;34.43;17.10;;;;;;;;;;5089069;28;20051;-62
2022/12/21 13:57:56;;;;;;;;;;;;;;;;;;5082214;28;20446;-62
2022/12/21 14:00:25;;;;;;;40.63;18.98;;;;;;;;;;5073133;28;19920;-62
2022/12/21 14:02:54;;;;;;;29.02;16.42;;;;;;;;;;5065845;28;20723;-62
2022/12/21 14:05:20;;;;;;;31.15;15.52;;;;;;;;;;5074283;28;20122;-62
2022/12/21 14:07:49;;;;;;;32.85;16.20;;;;;;;;;;5074873;28;20166;-62
2022/12/21 14:10:42;;;;;;;34.60;16.35;;;;;;;;;;5088201;28;20063;-62
2022/12/21 14:13:26;;;;;;;32.05;15.90;;;;;;;;;;5074689;28;20050;-62
2022/12/21 14:15:57;;;;;;;28.77;16.23;;;;;;;;;;5101261;28;20104;-62
2022/12/21 14:18:24;;;;;;;35.55;17.30;;;;;;;;;;5082736;28;20075;-62
2022/12/21 14:20:59;;;;;;;37.05;16.55;;;;;;;;;;5085283;28;20043;-62